Latest Weather Observations for Armidale Airport

IDN60801

Issued at 9:35 pm EST Saturday 20 September 2014 (issued every 30 minutes, with the page automatically refreshed every 10 minutes)

About weather observations | Map of weather stations | Latest weather observations for NSW | Other Formats
Station Details ID: 056238 Name: ARMIDALE AIRPORT AWS Lat: -30.53 Lon: 151.62 Height: 1079.0 m
Data from the previous 72 hours. | See also: Recent months for locations in New South Wales
Date/Time
EST
Temp
°C
App
Temp
°C
Dew
Point
Rel
Hum
%
Delta-T
°C
Wind Press
QNH
hPa
Press
MSL
hPa
Rain
since 9 am
mm
Dir
 
Spd
km/h
Gust
km/h
Spd
kts
Gust
kts
20/09:30pm 6.3 1.4 2.2 75 1.8 E 17 24 9 13 1026.0 1024.2 0.0
20/09:00pm 6.9 2.0 2.2 72 2.1 E 17 24 9 13 1025.8 1024.0 0.0
20/08:30pm 7.8 2.4 2.5 69 2.4 E 20 26 11 14 1025.6 1023.7 0.0
20/08:00pm 8.5 2.4 2.5 66 2.7 E 24 32 13 17 1025.5 1023.6 0.0
20/07:30pm 9.2 3.3 1.9 60 3.3 E 22 30 12 16 1025.1 1023.3 0.0
20/07:00pm 9.8 4.5 -0.4 49 4.3 E 17 30 9 16 1024.7 1022.8 0.0
20/06:30pm 10.1 5.5 -1.3 45 4.8 E 13 20 7 11 1024.0 1022.1 0.0
20/06:00pm 11.4 5.9 -2.0 39 5.6 ESE 17 22 9 12 1023.5 1021.6 0.0
20/05:30pm 12.7 8.5 -3.5 32 6.6 ESE 9 13 5 7 1022.8 1020.9 0.0
20/05:00pm 13.9 9.0 -3.4 30 7.1 ESE 13 20 7 11 1022.4 1020.4 0.0
20/04:30pm 14.6 9.7 -3.7 28 7.6 ESE 13 17 7 9 1021.9 1020.0 0.0
20/04:00pm 14.8 9.1 -4.0 27 7.7 SSE 17 20 9 11 1021.7 1019.8 0.0
20/03:30pm 15.2 10.3 -3.2 28 7.7 SE 13 20 7 11 1021.5 1019.5 0.0
20/03:00pm 14.7 9.8 -3.1 29 7.5 SSW 13 24 7 13 1021.3 1019.3 0.0
20/02:30pm 15.1 10.2 -3.3 28 7.7 E 13 22 7 12 1021.5 1019.5 0.0
20/02:00pm 15.4 10.7 -2.1 30 7.5 S 13 22 7 12 1021.5 1019.5 0.0
20/01:30pm 15.3 10.7 -0.9 33 7.2 SSW 13 19 7 10 1021.7 1019.8 0.0
20/01:00pm 13.6 9.0 -0.8 37 6.3 ESE 13 20 7 11 1021.8 1019.9 0.0
20/12:30pm 13.5 9.0 -0.2 39 6.1 SSE 13 20 7 11 1022.1 1020.2 0.0
20/12:00pm 13.1 9.0 -0.2 40 5.8 SE 11 17 6 9 1022.5 1020.6 0.0
20/11:30am 13.7 9.7 0.4 40 6.0 NE 11 19 6 10 1022.8 1020.9 0.0
20/11:00am 13.0 8.8 1.7 46 5.2 ENE 13 20 7 11 1023.0 1021.1 0.0
20/10:30am 12.6 8.5 4.1 56 4.1 ENE 15 22 8 12 1023.2 1021.4 0.0
20/10:00am 12.1 7.6 5.9 66 3.1 ENE 19 26 10 14 1023.4 1021.5 0.0
20/09:30am 10.6 6.8 6.0 73 2.3 NE 15 20 8 11 1023.5 1021.6 0.0
20/09:00am 9.3 5.2 6.2 81 1.5 E 17 22 9 12 1023.6 1021.7 0.0
20/08:59am 9.3 5.6 6.4 82 1.4 E 15 22 8 12 1023.6 1021.7 0.0
20/08:30am 8.3 4.4 7.1 92 0.6 E 17 26 9 14 1023.4 1021.5 0.0
20/08:00am 6.4 2.7 6.3 99 0.0 ESE 15 20 8 11 1023.2 1021.4 0.0
20/07:33am 6.0 2.2 5.9 99 0.0 ESE 15 19 8 10 1022.9 1021.0 0.0
20/07:30am 5.8 2.0 5.7 99 0.0 ESE 15 19 8 10 1022.8 1020.9 0.0
20/07:00am 5.4 1.9 5.3 99 0.0 E 13 17 7 9 1022.6 1020.7 0.0
20/06:52am 5.6 1.7 5.5 99 0.0 E 15 17 8 9 1022.4 1020.4 0.0
20/06:30am 5.6 2.1 5.5 99 0.0 E 13 15 7 8 1022.0 1020.1 0.0
20/06:00am 4.4 1.1 4.3 99 0.0 E 11 13 6 7 1021.6 1019.6 0.0
20/05:43am 3.9 -0.3 3.6 98 0.1 ENE 15 15 8 8 1021.5 1019.5 0.0
20/05:30am 4.8 0.7 4.5 98 0.1 ENE 15 19 8 10 1021.3 1019.3 0.0
20/05:00am 5.8 1.6 5.5 98 0.1 ENE 17 24 9 13 1020.8 1018.9 0.0
20/04:30am 5.8 2.0 5.7 99 0.0 ENE 15 19 8 10 1020.5 1018.5 0.0
20/04:00am 5.2 0.9 5.1 99 0.0 ENE 17 19 9 10 1020.1 1018.2 0.0
20/03:30am 5.2 0.8 4.9 98 0.1 ENE 17 20 9 11 1020.0 1018.1 0.0
20/03:00am 5.4 1.1 5.1 98 0.1 ENE 17 20 9 11 1020.1 1018.2 0.0
20/02:30am 5.3 1.7 5.0 98 0.1 ENE 13 19 7 10 1020.4 1018.4 0.0
20/02:00am 4.9 2.4 4.6 98 0.1 E 7 15 4 8 1020.7 1018.7 0.0
20/01:51am 3.9 1.4 3.6 98 0.1 E 6 7 3 4 1020.8 1018.9 0.0
20/01:30am 3.3 0.1 3.0 98 0.1 E 9 9 5 5 1020.8 1018.9 0.0
20/01:00am 3.1 -0.1 2.8 98 0.1 E 9 9 5 5 1020.9 1019.0 0.0
20/12:30am 4.1 1.4 3.8 98 0.1 E 7 9 4 5 1021.1 1019.2 0.0
20/12:00am 5.3 2.4 4.9 97 0.2 SE 9 11 5 6 1021.4 1019.4 0.0
 
Date/Time
EST
Temp
°C
App
Temp
°C
Dew
Point
Rel
Hum
%
Delta-T
°C
Wind Press
QNH
hPa
Press
MSL
hPa
Rain
since 9 am
mm
Dir
 
Spd
km/h
Gust
km/h
Spd
kts
Gust
kts
19/11:30pm 5.4 2.4 3.9 90 0.7 ESE 9 11 5 6 1021.6 1019.6 0.0
19/11:00pm 5.2 1.4 -0.4 67 2.3 E 9 11 5 6 1021.6 1019.6 0.0
19/10:30pm 6.5 3.7 -3.2 50 3.7 N 2 6 1 3 1021.8 1019.9 0.0
19/10:00pm 7.4 3.5 -4.7 42 4.5 SE 7 9 4 5 1021.5 1019.5 0.0
19/09:30pm 7.4 3.1 -5.3 40 4.7 S 9 13 5 7 1021.6 1019.6 0.0
19/09:00pm 7.9 3.5 -5.5 38 4.9 SSW 9 11 5 6 1021.5 1019.5 0.0
19/08:30pm 7.5 3.2 -5.2 40 4.7 SW 9 13 5 7 1021.6 1019.6 0.0
19/08:00pm 8.7 3.9 -5.9 35 5.4 SSW 11 15 6 8 1021.1 1019.2 0.0
19/07:30pm 9.2 4.4 -5.8 34 5.6 SSW 11 15 6 8 1021.0 1019.1 0.0
19/07:00pm 8.7 3.6 -5.5 36 5.3 SW 13 15 7 8 1020.6 1018.6 0.0
19/06:30pm 9.3 3.8 -5.0 36 5.4 SW 15 17 8 9 1019.9 1017.9 0.0
19/06:00pm 10.4 4.6 -4.4 35 5.8 SW 17 20 9 11 1019.6 1017.6 0.0
19/05:30pm 11.7 8.0 -3.2 35 6.1 W 7 9 4 5 1019.1 1017.1 0.0
19/05:00pm 12.8 8.1 -4.8 29 7.0 W 11 15 6 8 1018.9 1016.9 0.0
19/04:30pm 13.7 7.9 -4.9 27 7.4 WSW 17 22 9 12 1018.7 1016.7 0.0
19/04:00pm 13.8 7.5 -5.9 25 7.7 SW 19 24 10 13 1018.5 1016.5 0.0
19/03:30pm 14.1 7.7 -5.1 26 7.7 WSW 20 26 11 14 1018.4 1016.4 0.0
19/03:00pm 15.0 8.6 -6.5 22 8.4 W 19 30 10 16 1018.5 1016.5 0.0
19/02:30pm 14.1 7.6 -8.5 20 8.4 W 19 26 10 14 1018.6 1016.6 0.0
19/02:00pm 14.7 8.9 -8.7 19 8.7 NNW 15 26 8 14 1018.7 1016.7 0.0
19/01:30pm 14.7 9.0 -7.4 21 8.5 W 15 19 8 10 1019.0 1017.0 0.0
19/01:00pm 14.7 8.5 -8.7 19 8.7 W 17 26 9 14 1019.4 1017.4 0.0
19/12:30pm 14.5 7.1 -6.9 22 8.3 NW 24 35 13 19 1019.8 1017.8 0.0
19/12:00pm 13.7 7.7 -6.5 24 7.8 W 17 26 9 14 1020.3 1018.3 0.0
19/11:30am 13.8 7.7 -8.1 21 8.2 W 17 30 9 16 1020.8 1018.9 0.0
19/11:00am 14.0 7.6 -6.8 23 8.0 WNW 19 30 10 16 1021.4 1019.4 0.0
19/10:30am 13.0 6.4 -7.1 24 7.6 WNW 20 28 11 15 1021.6 1019.6 0.0
19/10:00am 12.9 6.2 -7.7 23 7.6 W 20 28 11 15 1021.9 1020.0 0.0
19/09:30am 11.5 7.1 -5.9 29 6.6 WNW 9 15 5 8 1022.2 1020.3 0.0
19/09:00am 11.0 6.9 -6.3 29 6.5 W 7 13 4 7 1022.0 1020.1 0.0
19/08:30am 9.2 5.5 -4.7 37 5.3 N 6 9 3 5 1022.4 1020.4 0.0
19/08:00am 8.0 4.4 -3.8 43 4.5 NNE 6 7 3 4 1022.2 1020.3 0.0
19/07:30am 6.4 2.9 -2.5 53 3.5 NNE 6 7 3 4 1021.9 1020.0 0.0
19/07:00am 6.6 4.2 -2.8 51 3.6 CALM 0 0 0 0 1021.7 1019.8 0.0
19/06:30am 3.1 0.4 -5.5 53 3.0 CALM 0 0 0 0 1021.4 1019.4 0.0
19/06:00am 1.9 -2.1 -5.9 56 2.8 N 7 7 4 4 1021.1 1019.2 0.0
19/05:30am 0.8 -3.1 -6.1 60 2.4 NE 6 7 3 4 1020.8 1018.9 0.0
19/05:00am 1.4 -2.5 -6.6 55 2.7 NW 6 6 3 3 1020.5 1018.5 0.0
19/04:30am 2.3 -1.5 -5.6 56 2.9 NW 6 7 3 4 1020.3 1018.3 0.0
19/04:00am 1.3 -3.2 -6.5 56 2.7 NW 9 9 5 5 1020.4 1018.4 0.0
19/03:30am 2.0 -2.1 -6.8 52 3.0 NW 7 9 4 5 1020.4 1018.4 0.0
19/03:00am 2.8 -1.1 -6.3 51 3.2 NW 6 7 3 4 1020.5 1018.5 0.0
19/02:30am 3.3 -0.6 -6.4 49 3.5 WNW 6 6 3 3 1020.7 1018.7 0.0
19/02:00am 2.8 -1.1 -6.8 49 3.4 WNW 6 9 3 5 1020.7 1018.7 0.0
19/01:30am 3.5 -0.3 -5.9 50 3.3 W 6 7 3 4 1020.8 1018.9 0.0
19/01:00am 3.5 -1.0 -7.0 46 3.7 W 9 9 5 5 1020.8 1018.9 0.0
19/12:30am 4.5 0.0 -6.4 45 3.8 W 9 11 5 6 1020.9 1019.0 0.0
19/12:00am 4.8 0.7 -7.0 42 4.0 W 7 9 4 5 1021.1 1019.2 0.0
 
Date/Time
EST
Temp
°C
App
Temp
°C
Dew
Point
Rel
Hum
%
Delta-T
°C
Wind Press
QNH
hPa
Press
MSL
hPa
Rain
since 9 am
mm
Dir
 
Spd
km/h
Gust
km/h
Spd
kts
Gust
kts
18/11:30pm 3.9 -0.6 -6.6 46 3.6 WNW 9 11 5 6 1021.4 1019.4 0.0
18/11:00pm 3.7 -0.4 -6.8 46 3.5 NW 7 9 4 5 1021.5 1019.5 0.0
18/10:30pm 5.0 0.9 -6.8 42 4.1 W 7 9 4 5 1021.5 1019.5 0.0
18/10:00pm 3.5 -0.9 -6.2 49 3.3 WNW 9 11 5 6 1021.5 1019.5 0.0
18/09:30pm 4.9 0.0 -6.6 43 4.0 WNW 11 13 6 7 1021.6 1019.6 0.0
18/09:00pm 5.0 0.6 -6.2 44 3.9 WNW 9 11 5 6 1021.5 1019.5 0.0
18/08:30pm 6.0 0.5 -5.6 43 4.2 W 15 17 8 9 1021.3 1019.3 0.0
18/08:00pm 6.6 2.1 -6.7 38 4.7 WNW 9 13 5 7 1021.3 1019.3 0.0
18/07:30pm 7.0 2.2 -6.3 38 4.8 W 11 13 6 7 1021.1 1019.2 0.0
18/07:00pm 8.4 3.6 -6.5 34 5.4 W 11 13 6 7 1020.6 1018.6 0.0
18/06:30pm 8.0 3.2 -6.1 36 5.1 W 11 13 6 7 1020.4 1018.4 0.0
18/06:00pm 8.3 3.5 -5.9 36 5.2 W 11 15 6 8 1020.0 1018.1 0.0
18/05:30pm 11.2 5.6 -6.2 29 6.6 WSW 15 20 8 11 1019.6 1017.6 0.0
18/05:00pm 12.8 6.5 -5.7 27 7.2 WSW 19 26 10 14 1019.0 1017.0 0.0
18/04:30pm 13.5 6.8 -4.2 29 7.2 W 22 32 12 17 1018.9 1016.9 0.0
18/04:00pm 13.4 5.9 -4.2 29 7.1 W 26 33 14 18 1018.9 1016.9 0.0
18/03:30pm 14.0 6.6 -3.3 30 7.2 W 26 35 14 19 1018.9 1016.9 0.0
18/03:00pm 14.6 8.1 -2.8 30 7.3 W 22 28 12 15 1018.8 1016.8 0.0
18/02:30pm 14.1 6.4 -3.2 30 7.2 WSW 28 39 15 21 1018.7 1016.7 0.0
18/02:00pm 14.1 6.6 -4.6 27 7.5 WSW 26 41 14 22 1018.7 1016.7 0.0
18/01:30pm 13.7 6.7 -3.1 31 7.0 W 24 35 13 19 1019.1 1017.1 0.0
18/01:00pm 13.3 5.9 -3.9 30 7.0 W 26 43 14 23 1019.1 1017.1 0.0
18/12:30pm 13.2 6.4 -1.9 35 6.4 W 24 35 13 19 1019.4 1017.4 0.0
18/12:00pm 12.7 4.6 -3.1 33 6.5 W 30 37 16 20 1019.6 1017.6 0.0
18/11:30am 12.1 5.3 -2.1 37 5.9 W 24 33 13 18 1019.9 1017.9 0.0
18/11:00am 11.6 5.6 -1.5 40 5.5 W 20 32 11 17 1020.1 1018.2 0.0
18/10:30am 11.0 5.8 -0.2 46 4.8 W 17 28 9 15 1020.5 1018.5 0.0
18/10:00am 10.6 4.0 -0.2 47 4.6 W 24 33 13 18 1020.6 1018.6 0.0
18/09:30am 9.9 3.8 0.5 52 4.1 W 22 30 12 16 1020.6 1018.6 0.0
18/09:00am 9.0 2.4 -0.1 53 3.9 WSW 24 32 13 17 1020.8 1018.9 0.0
18/08:30am 8.2 1.7 0.2 57 3.4 WSW 24 32 13 17 1020.7 1018.7 0.0
18/08:00am 7.6 1.5 0.1 59 3.2 W 22 28 12 15 1020.3 1018.3 0.0
18/07:30am 6.8 1.1 0.5 64 2.7 W 20 26 11 14 1020.1 1018.2 0.0
18/07:00am 5.6 0.6 1.2 73 1.9 W 17 20 9 11 1019.8 1017.8 0.0
18/06:30am 3.6 -2.2 0.0 77 1.5 W 20 24 11 13 1019.5 1017.5 0.0
18/06:00am 2.1 -3.8 -1.0 80 1.2 W 20 22 11 12 1019.0 1017.0 0.0
18/05:30am 2.1 -3.6 -1.0 80 1.2 W 19 20 10 11 1018.8 1016.8 0.0
18/05:00am 2.1 -2.9 -1.2 79 1.3 W 15 17 8 9 1018.6 1016.6 0.0
18/04:30am 2.4 -2.2 -1.0 78 1.3 W 13 15 7 8 1018.4 1016.4 0.0
18/04:00am 2.4 -2.6 -1.2 77 1.4 W 15 17 8 9 1018.1 1016.1 0.0
18/03:30am 2.9 -1.7 -0.9 76 1.5 W 13 17 7 9 1017.8 1015.8 0.0
18/03:00am 3.5 -1.5 -0.9 73 1.7 W 15 17 8 9 1017.7 1015.7 0.0
18/02:30am 3.9 -1.0 -0.5 73 1.8 W 15 17 8 9 1017.8 1015.8 0.0
18/02:00am 3.6 -1.0 -1.0 72 1.8 W 13 15 7 8 1017.8 1015.8 0.0
18/01:30am 4.1 -0.1 -0.9 70 2.0 W 11 11 6 6 1017.8 1015.8 0.0
18/01:00am 4.1 -0.5 -0.7 71 1.9 W 13 15 7 8 1017.9 1015.9 0.0
18/12:30am 4.3 -0.3 -0.7 70 2.0 WNW 13 15 7 8 1018.0 1016.0 0.0
18/12:00am 4.2 -0.4 -0.8 70 2.0 WNW 13 15 7 8 1018.0 1016.0 0.0
 
Date/Time
EST
Temp
°C
App
Temp
°C
Dew
Point
Rel
Hum
%
Delta-T
°C
Wind Press
QNH
hPa
Press
MSL
hPa
Rain
since 9 am
mm
Dir
 
Spd
km/h
Gust
km/h
Spd
kts
Gust
kts
17/11:30pm 4.7 0.2 -0.3 70 2.0 W 13 15 7 8 1017.9 1015.9 0.0
17/11:00pm 5.3 0.8 -0.5 66 2.3 W 13 15 7 8 1017.8 1015.8 0.0
17/10:30pm 6.7 2.3 0.2 63 2.7 W 13 17 7 9 1018.0 1016.0 0.0
17/10:00pm 5.6 1.2 0.4 69 2.2 W 13 15 7 8 1018.0 1016.0 0.0

Other Formats:

Comma delimited format used in spreadsheet applications
http://www.bom.gov.au/fwo/IDN60801/IDN60801.95773.axf

JavaScript Object Notation format (JSON) in row-major order
http://www.bom.gov.au/fwo/IDN60801/IDN60801.95773.json